Time;durP1;ratioP1;P1;durP2;ratioP2;P2;SDS_P1;SDS_P2;PMS_P1;PMS_P2;Temp;Humidity;BMP_temperature;BMP_pressure;BME280_temperature;BME280_humidity;BME280_pressure;Samples;Min_cycle;Max_cycle;Signal;HPM_P1;HPM_P2
2021/03/13 00:01:45;;;;;;;5.47;2.03;;;;;;;3.90;78.67;99735.88;10171555;28;20046;-70
2021/03/13 00:06:42;;;;;;;9.35;2.50;;;;;;;3.78;79.79;99720.13;10166274;28;20056;-69
2021/03/13 00:11:38;;;;;;;4.18;1.40;;;;;;;3.72;79.83;99707.81;10170312;28;20111;-70
2021/03/13 00:16:34;;;;;;;5.40;1.60;;;;;;;3.78;79.74;99690.38;10154790;28;21222;-67
2021/03/13 00:21:30;;;;;;;5.18;1.83;;;;;;;3.67;79.53;99710.59;10155172;28;20058;-67
2021/03/13 00:26:27;;;;;;;6.43;2.58;;;;;;;3.73;80.58;99687.75;10172416;28;20610;-70
2021/03/13 00:31:23;;;;;;;6.35;2.13;;;;;;;3.63;80.56;99694.16;10160987;28;20078;-68
2021/03/13 00:36:19;;;;;;;5.07;2.00;;;;;;;3.63;81.24;99693.34;10166186;28;20053;-68
2021/03/13 00:41:15;;;;;;;5.95;2.15;;;;;;;3.61;80.63;99700.97;10163703;28;20105;-68
2021/03/13 00:46:11;;;;;;;10.20;3.70;;;;;;;3.58;81.48;99721.28;10169278;28;20064;-68
2021/03/13 00:51:08;;;;;;;9.38;2.40;;;;;;;3.54;81.03;99712.94;10174583;28;20100;-68
2021/03/13 00:56:04;;;;;;;6.22;2.50;;;;;;;3.48;81.16;99714.13;10165599;28;20056;-68
2021/03/13 01:01:00;;;;;;;4.63;2.00;;;;;;;3.46;80.92;99704.69;10163749;28;20066;-67
2021/03/13 01:05:56;;;;;;;5.22;2.13;;;;;;;3.42;80.67;99707.19;10172431;28;20642;-67
2021/03/13 01:10:52;;;;;;;6.47;1.85;;;;;;;3.43;79.74;99711.50;10168512;28;20050;-68
2021/03/13 01:15:48;;;;;;;6.55;1.75;;;;;;;3.40;79.71;99706.69;10160369;28;20065;-68
2021/03/13 01:20:50;;;;;;;3.70;1.70;;;;;;;3.41;80.20;99694.78;10169374;28;20463;-67
2021/03/13 01:25:46;;;;;;;4.93;1.75;;;;;;;3.36;80.78;99694.84;10165297;28;20054;-68
2021/03/13 01:30:42;;;;;;;6.97;1.75;;;;;;;3.34;80.11;99683.53;10179678;28;20041;-68
2021/03/13 01:35:38;;;;;;;5.82;2.22;;;;;;;3.24;80.49;99683.72;10169937;28;20082;-69
2021/03/13 01:40:34;;;;;;;7.70;1.77;;;;;;;3.32;80.44;99680.34;10166012;28;20053;-69
2021/03/13 01:45:30;;;;;;;6.25;2.33;;;;;;;3.21;80.05;99673.50;10180030;28;20104;-69
2021/03/13 01:50:26;;;;;;;5.63;1.40;;;;;;;3.19;80.43;99683.78;10170583;28;20054;-69
2021/03/13 01:55:22;;;;;;;6.25;2.08;;;;;;;3.16;80.66;99664.38;10156452;28;20237;-68
2021/03/13 02:00:21;;;;;;;6.78;1.65;;;;;;;3.12;80.73;99660.66;10160865;28;20105;-68
2021/03/13 02:05:26;;;;;;;9.07;1.40;;;;;;;3.06;80.44;99661.81;10181243;28;20041;-66
2021/03/13 02:10:53;;;;;;;3.90;1.23;;;;;;;3.04;80.32;99661.34;10162929;28;20485;-67
2021/03/13 02:16:09;;;;;;;5.63;1.17;;;;;;;3.07;79.81;99659.94;10154763;28;20053;-68
2021/03/13 02:21:19;;;;;;;8.98;1.80;;;;;;;3.05;79.88;99657.53;10163099;28;20042;-69
2021/03/13 02:26:26;;;;;;;4.38;1.13;;;;;;;3.07;80.17;99647.22;10172633;28;20716;-67
2021/03/13 02:31:25;;;;;;;8.73;2.05;;;;;;;3.11;79.76;99650.97;10178212;28;20057;-68
2021/03/13 02:36:22;;;;;;;10.25;2.30;;;;;;;3.10;80.42;99649.34;10193501;28;20044;-67
2021/03/13 02:41:27;;;;;;;7.30;2.90;;;;;;;3.13;81.54;99632.56;10201268;28;20069;-67
2021/03/13 02:46:25;;;;;;;7.75;2.97;;;;;;;3.20;81.85;99639.47;10172667;28;20610;-67
2021/03/13 02:51:24;;;;;;;12.20;4.30;;;;;;;3.37;81.49;99621.63;10179422;28;20042;-69
2021/03/13 02:56:22;;;;;;;12.57;4.03;;;;;;;3.42;82.46;99622.63;10161799;28;20412;-69
2021/03/13 03:01:20;;;;;;;10.50;4.45;;;;;;;3.41;81.66;99619.09;10162807;28;20053;-68
2021/03/13 03:06:18;;;;;;;15.40;4.68;;;;;;;3.45;82.39;99620.13;10177750;28;20050;-68
2021/03/13 03:11:19;;;;;;;14.07;4.93;;;;;;;3.46;82.36;99602.84;10168468;28;20048;-67
2021/03/13 03:16:16;;;;;;;12.57;5.30;;;;;;;3.42;81.95;99601.00;10184986;28;20095;-68
2021/03/13 03:21:13;;;;;;;13.95;4.97;;;;;;;3.46;82.25;99586.63;10176696;28;20051;-68
2021/03/13 03:26:09;;;;;;;11.65;4.45;;;;;;;3.36;82.60;99584.06;10168411;28;20050;-68
2021/03/13 03:31:05;;;;;;;12.23;4.55;;;;;;;3.38;82.44;99573.78;10170849;28;20590;-68
2021/03/13 03:36:02;;;;;;;11.57;4.72;;;;;;;3.35;82.63;99568.97;10161389;28;20084;-68
2021/03/13 03:40:58;;;;;;;13.43;5.00;;;;;;;3.22;82.81;99569.75;10161244;28;20111;-68
2021/03/13 03:45:58;;;;;;;8.73;4.10;;;;;;;3.23;83.05;99565.97;10175473;28;20115;-68
2021/03/13 03:50:55;;;;;;;12.52;5.32;;;;;;;3.18;83.64;99558.75;10169531;28;20114;-68
2021/03/13 03:55:54;;;;;;;15.00;4.90;;;;;;;3.14;83.69;99553.13;10183509;28;20129;-68
2021/03/13 04:00:51;;;;;;;15.63;5.68;;;;;;;3.04;84.64;99542.50;10168337;28;20042;-68
2021/03/13 04:05:47;;;;;;;13.32;7.05;;;;;;;3.02;85.08;99533.91;10161193;28;20104;-67
2021/03/13 04:10:46;;;;;;;14.15;6.03;;;;;;;3.09;84.61;99528.91;10159253;28;20719;-66
2021/03/13 04:15:44;;;;;;;15.10;6.65;;;;;;;3.08;84.83;99516.50;10162048;28;20097;-68
2021/03/13 04:20:41;;;;;;;16.70;6.80;;;;;;;3.03;84.67;99508.47;10162739;28;20050;-68
2021/03/13 04:25:37;;;;;;;12.50;6.43;;;;;;;3.02;85.24;99506.88;10170053;28;20050;-67
2021/03/13 04:30:33;;;;;;;14.55;6.47;;;;;;;2.99;85.59;99499.38;10178861;28;20050;-68
2021/03/13 04:35:44;;;;;;;18.88;8.10;;;;;;;2.97;85.69;99492.66;10177331;28;20045;-68
2021/03/13 04:40:41;;;;;;;13.73;7.28;;;;;;;2.90;86.05;99482.25;10181790;28;20143;-68
2021/03/13 04:45:37;;;;;;;18.65;10.00;;;;;;;3.00;86.44;99473.97;10175640;28;20049;-68
2021/03/13 04:50:34;;;;;;;17.13;8.88;;;;;;;2.93;86.38;99466.25;10176491;28;20057;-68
2021/03/13 04:55:30;;;;;;;14.93;8.40;;;;;;;3.10;85.86;99452.19;10184188;28;20050;-68
2021/03/13 05:00:26;;;;;;;15.10;8.10;;;;;;;3.10;86.14;99449.47;10173640;28;20073;-67
2021/03/13 05:05:22;;;;;;;17.98;9.68;;;;;;;3.04;86.12;99442.59;10175311;28;20050;-68
2021/03/13 05:10:18;;;;;;;19.40;9.43;;;;;;;3.13;86.07;99435.38;10170445;28;20072;-68
2021/03/13 05:15:14;;;;;;;26.23;12.35;;;;;;;3.06;86.73;99421.47;10171623;28;20065;-67
2021/03/13 05:20:11;;;;;;;19.40;10.77;;;;;;;3.20;86.27;99409.88;10171395;28;20511;-68
2021/03/13 05:25:08;;;;;;;26.98;11.90;;;;;;;3.15;87.08;99403.47;10163973;28;20054;-68
2021/03/13 05:30:05;;;;;;;22.80;11.57;;;;;;;3.26;86.99;99397.88;10216234;28;20053;-68
2021/03/13 05:35:03;;;;;;;20.38;12.43;;;;;;;3.28;86.55;99385.66;10165565;28;20046;-68
2021/03/13 05:39:59;;;;;;;19.98;12.27;;;;;;;3.35;86.58;99369.84;10178122;28;20546;-68
2021/03/13 05:44:57;;;;;;;24.58;12.63;;;;;;;3.40;86.15;99355.41;10186543;28;20035;-68
2021/03/13 05:50:11;;;;;;;20.42;13.25;;;;;;;3.46;86.43;99340.72;10177895;28;20049;-68
2021/03/13 05:55:09;;;;;;;25.00;13.43;;;;;;;3.50;86.47;99328.16;10218283;28;20050;-67
2021/03/13 06:00:06;;;;;;;22.00;13.48;;;;;;;3.57;86.54;99323.16;10185552;28;20050;-68
2021/03/13 06:05:03;;;;;;;23.80;12.75;;;;;;;3.57;86.37;99317.75;10210946;28;20045;-68
2021/03/13 06:09:59;;;;;;;20.17;13.48;;;;;;;3.63;86.08;99293.31;10178266;28;20104;-68
2021/03/13 06:14:56;;;;;;;22.63;14.32;;;;;;;3.71;86.25;99279.03;10175361;28;20100;-68
2021/03/13 06:19:56;;;;;;;21.98;13.50;;;;;;;3.77;86.42;99261.59;10169840;28;20463;-68
2021/03/13 06:25:13;;;;;;;21.48;13.82;;;;;;;3.84;86.12;99245.75;10170759;28;20054;-68
2021/03/13 06:30:14;;;;;;;23.30;13.93;;;;;;;3.87;86.42;99239.72;10170807;28;20057;-67
2021/03/13 06:35:22;;;;;;;21.10;13.23;;;;;;;3.90;86.78;99222.88;10159554;28;20093;-66
2021/03/13 06:40:45;;;;;;;25.17;12.68;;;;;;;4.02;87.34;99214.19;10180150;28;20089;-67
2021/03/13 06:45:56;;;;;;;24.92;12.68;;;;;;;3.98;87.23;99199.69;10174674;28;20056;-66
2021/03/13 06:50:53;;;;;;;24.83;12.77;;;;;;;4.03;87.98;99177.91;10214421;28;20491;-69
2021/03/13 06:56:06;;;;;;;18.13;10.57;;;;;;;4.04;88.02;99178.69;10183375;28;20042;-68
2021/03/13 07:01:05;;;;;;;18.45;11.23;;;;;;;4.14;88.55;99162.22;10177071;28;20051;-69
2021/03/13 07:06:15;;;;;;;20.08;9.02;;;;;;;4.15;88.14;99145.66;10166883;28;20053;-68
2021/03/13 07:11:11;;;;;;;19.35;8.57;;;;;;;4.11;88.97;99124.97;10170562;28;20042;-68
2021/03/13 07:16:27;;;;;;;15.73;8.10;;;;;;;4.12;88.05;99110.34;10179744;28;20416;-69
2021/03/13 07:21:24;;;;;;;12.85;7.90;;;;;;;4.07;88.24;99099.66;10173480;28;20530;-69
2021/03/13 07:26:24;;;;;;;13.52;7.70;;;;;;;4.08;88.64;99087.72;10162518;28;20065;-69
2021/03/13 07:31:22;;;;;;;10.15;6.72;;;;;;;4.09;88.60;99081.22;10175344;28;20042;-68
2021/03/13 07:36:21;;;;;;;15.25;7.18;;;;;;;4.09;89.34;99060.38;10171606;28;20092;-69
2021/03/13 07:41:18;;;;;;;15.23;7.22;;;;;;;4.12;88.90;99048.13;10171331;28;20491;-70
2021/03/13 07:46:14;;;;;;;15.57;7.05;;;;;;;4.08;88.80;99034.41;10170660;28;20050;-68
2021/03/13 07:51:12;;;;;;;15.85;6.30;;;;;;;4.10;89.21;99015.19;10182048;28;20049;-69
2021/03/13 07:56:12;;;;;;;11.48;5.50;;;;;;;4.11;88.96;99005.97;10172817;28;20463;-69
2021/03/13 08:01:12;;;;;;;9.32;4.97;;;;;;;4.08;88.45;98990.34;10169344;28;20126;-69
2021/03/13 08:06:11;;;;;;;9.45;4.07;;;;;;;3.97;89.33;98969.03;10167731;28;20054;-69
2021/03/13 08:11:09;;;;;;;9.60;4.53;;;;;;;4.03;88.51;98944.53;10167756;28;20046;-69
2021/03/13 08:16:13;;;;;;;9.18;3.92;;;;;;;4.06;88.98;98943.91;10157401;28;20041;-69
2021/03/13 08:21:19;;;;;;;6.30;3.10;;;;;;;4.11;89.52;98930.25;10157912;28;20489;-68
2021/03/13 08:26:16;;;;;;;5.97;3.25;;;;;;;4.14;89.48;98940.41;10165517;28;20523;-69
2021/03/13 08:31:33;;;;;;;4.40;2.88;;;;;;;4.03;89.85;98912.88;10162138;28;20054;-67
2021/03/13 08:36:31;;;;;;;6.35;3.08;;;;;;;4.04;89.51;98892.03;10152819;28;20061;-69
2021/03/13 08:46:44;;;;;;;6.22;2.30;;;;;;;4.13;90.06;98853.06;10158731;28;20582;-67
2021/03/13 08:51:41;;;;;;;4.88;2.05;;;;;;;4.17;89.43;98837.75;10165487;28;20412;-69
2021/03/13 08:56:42;;;;;;;3.67;2.10;;;;;;;4.16;89.84;98830.78;10168060;28;20663;-70
2021/03/13 09:01:40;;;;;;;4.53;1.77;;;;;;;4.24;89.37;98815.63;10161333;28;20049;-70
2021/03/13 09:06:39;;;;;;;4.72;2.65;;;;;;;4.20;89.94;98809.28;10157463;28;20583;-68
2021/03/13 09:11:36;;;;;;;8.10;2.70;;;;;;;4.34;90.30;98788.25;10179368;28;20053;-68
2021/03/13 09:16:37;;;;;;;4.47;2.67;;;;;;;4.36;90.16;98791.44;10162364;28;20113;-67
2021/03/13 09:21:39;;;;;;;4.80;2.65;;;;;;;4.36;89.93;98783.31;10169864;28;20926;-67
2021/03/13 09:26:36;;;;;;;5.18;2.53;;;;;;;4.44;90.44;98776.28;10180791;28;20049;-69
2021/03/13 09:31:32;;;;;;;4.50;2.42;;;;;;;4.52;90.67;98767.31;10173901;28;20414;-69
2021/03/13 09:36:28;;;;;;;5.18;2.10;;;;;;;4.61;91.33;98764.56;10168256;28;20077;-68
2021/03/13 09:41:25;;;;;;;3.95;1.95;;;;;;;4.68;91.01;98791.13;10178371;28;21365;-70
2021/03/13 09:46:21;;;;;;;4.65;1.52;;;;;;;4.77;90.23;98783.78;10169077;28;20045;-70
2021/03/13 09:51:17;;;;;;;4.32;1.50;;;;;;;4.83;90.17;98783.25;10175997;28;20500;-70
2021/03/13 09:56:13;;;;;;;3.42;1.25;;;;;;;4.82;89.70;98797.91;10170199;28;20061;-68
2021/03/13 10:01:12;;;;;;;3.28;1.05;;;;;;;4.90;86.82;98809.00;10187539;28;20042;-69
2021/03/13 10:06:08;;;;;;;3.15;0.70;;;;;;;4.92;83.79;98804.06;10159713;28;20046;-70
2021/03/13 10:11:05;;;;;;;3.35;0.60;;;;;;;4.91;80.44;98783.53;10171850;28;20190;-70
2021/03/13 10:16:02;;;;;;;2.53;0.47;;;;;;;4.99;78.21;98779.97;10177342;28;20500;-70
2021/03/13 10:20:59;;;;;;;1.65;0.47;;;;;;;5.08;78.31;98799.69;10174758;28;20073;-70
2021/03/13 10:26:01;;;;;;;2.75;0.50;;;;;;;5.48;77.60;98774.88;10175291;28;20072;-68
2021/03/13 10:31:11;;;;;;;7.93;0.80;;;;;;;5.96;77.50;98772.72;10204280;28;20046;-68
2021/03/13 10:36:09;;;;;;;5.47;0.90;;;;;;;6.37;76.03;98777.22;10173490;28;20137;-69
2021/03/13 10:41:14;;;;;;;6.72;1.80;;;;;;;6.69;74.72;98759.28;10166887;28;20048;-69
2021/03/13 10:46:21;;;;;;;5.65;0.85;;;;;;;6.85;73.93;98743.09;10166895;28;20042;-68
2021/03/13 10:51:35;;;;;;;7.60;0.85;;;;;;;6.92;72.84;98743.31;10168392;28;20042;-68
2021/03/13 10:56:39;;;;;;;6.53;1.17;;;;;;;7.14;70.94;98749.38;10161290;28;20065;-68
2021/03/13 11:01:37;;;;;;;3.22;0.70;;;;;;;7.34;68.72;98755.81;10171635;28;20045;-68
2021/03/13 11:06:35;;;;;;;7.55;1.77;;;;;;;7.67;69.77;98757.50;10169238;28;20062;-68
2021/03/13 11:11:31;;;;;;;7.25;1.70;;;;;;;7.55;70.11;98742.03;10167690;28;20151;-69
2021/03/13 11:16:27;;;;;;;7.55;1.13;;;;;;;7.83;67.75;98724.91;10170341;28;20053;-69
2021/03/13 11:21:24;;;;;;;6.85;1.50;;;;;;;7.54;69.39;98724.13;10162616;28;20686;-69
2021/03/13 11:26:22;;;;;;;7.90;1.30;;;;;;;7.33;68.67;98727.84;10163770;28;20109;-69
2021/03/13 11:31:18;;;;;;;8.43;2.55;;;;;;;7.25;69.41;98717.88;10175492;28;20046;-68
2021/03/13 11:36:15;;;;;;;6.53;1.35;;;;;;;7.62;69.73;98693.28;10162307;28;20427;-68
2021/03/13 11:41:11;;;;;;;9.20;1.70;;;;;;;7.30;70.43;98701.31;10161670;28;20424;-69
2021/03/13 11:46:12;;;;;;;7.38;1.58;;;;;;;6.99;72.10;98698.47;10186770;28;20045;-69
2021/03/13 11:51:10;;;;;;;5.43;1.20;;;;;;;6.25;74.80;98720.22;10165587;28;20112;-69
2021/03/13 11:56:06;;;;;;;9.75;1.80;;;;;;;6.01;78.55;98705.50;10182425;28;20512;-69
2021/03/13 12:01:02;;;;;;;5.93;1.15;;;;;;;6.50;77.96;98683.81;10166260;28;20501;-69
2021/03/13 12:05:58;;;;;;;6.18;1.38;;;;;;;6.77;76.79;98681.50;10164806;28;20097;-69
2021/03/13 12:10:54;;;;;;;6.20;1.20;;;;;;;6.65;75.18;98673.41;10173205;28;20062;-68
2021/03/13 12:15:51;;;;;;;6.97;1.40;;;;;;;6.71;74.36;98685.63;10167284;28;20049;-69
2021/03/13 12:20:47;;;;;;;7.72;1.38;;;;;;;6.81;72.92;98704.16;10167546;28;20057;-69
2021/03/13 12:25:43;;;;;;;8.05;1.63;;;;;;;6.89;73.74;98694.28;10152208;28;20069;-69
2021/03/13 12:30:39;;;;;;;6.13;1.20;;;;;;;6.73;71.97;98686.06;10166663;28;20792;-70
2021/03/13 12:35:35;;;;;;;6.28;1.00;;;;;;;7.21;71.42;98695.22;10159706;28;20064;-69
2021/03/13 12:40:31;;;;;;;7.40;1.50;;;;;;;7.25;70.72;98663.50;10168902;28;20046;-69
2021/03/13 12:45:27;;;;;;;7.30;1.23;;;;;;;7.70;69.01;98661.59;10175397;28;20061;-68
2021/03/13 12:50:23;;;;;;;8.02;1.80;;;;;;;7.78;65.11;98671.53;10177873;28;20570;-68
2021/03/13 12:55:19;;;;;;;8.45;1.25;;;;;;;7.35;64.02;98684.75;10170787;28;20053;-69
2021/03/13 13:00:15;;;;;;;10.10;2.03;;;;;;;7.24;66.01;98704.63;10166213;28;20050;-68
2021/03/13 13:05:12;;;;;;;7.18;1.98;;;;;;;7.00;67.68;98710.91;10178364;28;20064;-68
2021/03/13 13:10:10;;;;;;;7.68;1.55;;;;;;;8.31;65.50;98695.78;10178428;28;20061;-69
2021/03/13 13:15:06;;;;;;;5.57;1.48;;;;;;;9.82;61.47;98681.53;10169113;28;20468;-68
2021/03/13 13:20:08;;;;;;;4.10;0.82;;;;;;;9.32;59.49;98699.66;10176626;28;20046;-68
2021/03/13 13:25:06;;;;;;;3.38;0.70;;;;;;;8.74;62.49;98694.13;10184349;28;20106;-69
2021/03/13 13:30:04;;;;;;;5.00;1.02;;;;;;;7.89;63.66;98702.53;10172037;28;20056;-69
2021/03/13 13:35:01;;;;;;;7.63;1.17;;;;;;;7.81;63.84;98689.88;10168246;28;20609;-69
2021/03/13 13:39:57;;;;;;;7.93;1.23;;;;;;;7.34;65.37;98688.63;10170302;28;20057;-68
2021/03/13 13:44:53;;;;;;;10.05;1.17;;;;;;;7.24;65.76;98683.69;10173568;28;20034;-66
2021/03/13 13:49:50;;;;;;;7.30;1.27;;;;;;;7.16;67.45;98703.63;10170554;28;20132;-68
2021/03/13 13:54:46;;;;;;;7.53;1.35;;;;;;;7.41;66.15;98687.25;10175886;28;20125;-68
2021/03/13 13:59:42;;;;;;;5.88;1.30;;;;;;;7.56;65.45;98694.66;10178317;28;20137;-68
2021/03/13 14:04:38;;;;;;;9.07;1.55;;;;;;;7.16;66.47;98719.94;10184713;28;20585;-68
2021/03/13 14:09:34;;;;;;;6.30;1.30;;;;;;;7.04;68.34;98700.94;10182242;28;20050;-69
2021/03/13 14:14:30;;;;;;;15.40;2.50;;;;;;;6.93;69.50;98706.84;10180260;28;20052;-69
2021/03/13 14:19:27;;;;;;;9.30;1.60;;;;;;;6.47;71.43;98733.34;10192072;28;20467;-67
2021/03/13 14:24:23;;;;;;;5.63;1.30;;;;;;;6.14;73.59;98719.88;10182631;28;20555;-68
2021/03/13 14:29:23;;;;;;;4.03;0.93;;;;;;;5.81;73.47;98722.59;10182669;28;20049;-69
2021/03/13 14:34:20;;;;;;;3.42;0.63;;;;;;;5.83;72.80;98693.22;10176163;28;21301;-69
2021/03/13 14:39:16;;;;;;;6.85;1.48;;;;;;;5.78;72.07;98701.53;10159668;28;20049;-69
2021/03/13 14:44:13;;;;;;;5.25;0.88;;;;;;;5.85;73.02;98701.81;10165757;28;20100;-70
2021/03/13 14:49:09;;;;;;;4.03;1.00;;;;;;;5.70;72.87;98708.66;10169220;28;20512;-70
2021/03/13 14:54:05;;;;;;;7.25;0.93;;;;;;;5.83;73.22;98688.59;10171499;28;20045;-68
2021/03/13 14:59:01;;;;;;;6.53;1.17;;;;;;;5.84;73.15;98683.94;10168582;28;20496;-69
2021/03/13 15:03:57;;;;;;;6.25;1.30;;;;;;;5.66;77.58;98719.38;10164297;28;20382;-69
2021/03/13 15:08:53;;;;;;;4.03;0.90;;;;;;;5.73;77.13;98689.00;10164703;28;20050;-69
2021/03/13 15:13:49;;;;;;;6.10;2.03;;;;;;;5.53;76.72;98690.63;10168798;28;20056;-70
2021/03/13 15:18:45;;;;;;;5.68;1.65;;;;;;;6.22;76.96;98694.56;10182694;28;20534;-70
2021/03/13 15:23:42;;;;;;;3.88;0.82;;;;;;;6.44;74.29;98674.31;10170212;28;20057;-70
2021/03/13 15:28:38;;;;;;;5.05;0.90;;;;;;;6.27;73.95;98664.47;10167007;28;20046;-70
2021/03/13 15:33:34;;;;;;;5.05;0.98;;;;;;;6.45;74.49;98662.34;10178906;28;20046;-70
2021/03/13 15:38:32;;;;;;;4.55;1.05;;;;;;;6.17;73.96;98653.28;10168722;28;20136;-70
2021/03/13 15:43:32;;;;;;;4.25;0.90;;;;;;;5.79;74.61;98665.19;10171979;28;20095;-69
2021/03/13 15:48:28;;;;;;;5.68;1.10;;;;;;;5.84;74.76;98657.59;10172854;28;20085;-70
2021/03/13 15:53:24;;;;;;;9.23;2.10;;;;;;;5.61;75.88;98659.94;10165971;28;20141;-69
2021/03/13 15:58:21;;;;;;;6.50;1.10;;;;;;;5.82;75.90;98653.66;10160306;28;20419;-70
2021/03/13 16:03:17;;;;;;;7.38;1.52;;;;;;;5.64;77.39;98659.28;10168437;28;20533;-69
2021/03/13 16:08:13;;;;;;;8.88;1.80;;;;;;;5.66;79.01;98654.31;10173576;28;20049;-70
2021/03/13 16:13:09;;;;;;;6.22;1.70;;;;;;;5.55;78.70;98669.41;10157569;28;20049;-70
2021/03/13 16:18:06;;;;;;;7.57;1.65;;;;;;;5.38;80.10;98631.63;10165545;28;20058;-70
2021/03/13 16:23:02;;;;;;;10.15;1.98;;;;;;;5.37;81.37;98643.59;10160616;28;20042;-71
2021/03/13 16:28:02;;;;;;;6.97;1.70;;;;;;;5.36;81.86;98609.47;10159308;28;20050;-67
2021/03/13 16:32:58;;;;;;;8.95;1.80;;;;;;;5.37;81.93;98602.94;10168561;28;20447;-69
2021/03/13 16:37:55;;;;;;;7.25;1.75;;;;;;;5.36;81.25;98593.22;10165118;28;20177;-68
2021/03/13 16:42:51;;;;;;;9.20;1.80;;;;;;;5.32;81.26;98587.69;10158867;28;20045;-69
2021/03/13 16:47:48;;;;;;;7.75;1.63;;;;;;;5.28;80.85;98574.00;10161657;28;20464;-68
2021/03/13 16:52:44;;;;;;;8.18;1.45;;;;;;;5.24;79.90;98565.00;10173188;28;20565;-69
2021/03/13 16:57:41;;;;;;;7.68;1.17;;;;;;;5.21;79.34;98543.97;10161970;28;20053;-68
2021/03/13 17:02:38;;;;;;;7.68;1.25;;;;;;;5.21;78.75;98560.22;10162709;28;20058;-68
2021/03/13 17:07:34;;;;;;;4.32;1.10;;;;;;;5.18;78.17;98560.91;10169997;28;20531;-68
2021/03/13 17:12:30;;;;;;;5.32;0.55;;;;;;;5.19;76.97;98575.22;10177955;28;20052;-68
2021/03/13 17:17:27;;;;;;;3.45;0.63;;;;;;;5.17;77.49;98564.72;10163374;28;20148;-68
2021/03/13 17:22:23;;;;;;;3.40;1.02;;;;;;;5.20;77.17;98558.66;10163032;28;20053;-68
2021/03/13 17:27:19;;;;;;;5.50;0.73;;;;;;;5.31;77.01;98564.41;10174476;28;20057;-69
2021/03/13 17:32:15;;;;;;;2.60;0.80;;;;;;;5.16;78.21;98590.25;10182204;28;20053;-68
2021/03/13 17:37:11;;;;;;;3.78;0.77;;;;;;;5.04;79.55;98591.00;10180155;28;20050;-69
2021/03/13 17:42:09;;;;;;;3.90;0.90;;;;;;;4.99;81.44;98601.22;10177254;28;20057;-69
2021/03/13 17:47:04;;;;;;;5.55;1.10;;;;;;;4.87;83.32;98598.47;10176596;28;20046;-68
2021/03/13 17:52:01;;;;;;;5.97;1.60;;;;;;;4.73;85.00;98587.91;10163486;28;20044;-69
2021/03/13 17:56:57;;;;;;;3.60;1.08;;;;;;;4.71;84.70;98590.97;10175353;28;20128;-68
2021/03/13 18:01:54;;;;;;;3.90;1.20;;;;;;;4.75;84.63;98600.00;10179849;28;20042;-69
2021/03/13 18:06:50;;;;;;;3.63;1.02;;;;;;;4.78;83.43;98596.63;10170158;28;20042;-67
2021/03/13 18:11:46;;;;;;;4.55;1.30;;;;;;;4.81;82.03;98590.56;10156805;28;20049;-71
2021/03/13 18:16:42;;;;;;;2.85;0.88;;;;;;;4.80;80.67;98599.81;10166059;28;20511;-70
2021/03/13 18:21:39;;;;;;;3.85;1.45;;;;;;;4.91;80.03;98583.16;10163148;28;20051;-67
2021/03/13 18:26:35;;;;;;;4.40;1.35;;;;;;;4.88;79.38;98573.00;10160088;28;20446;-68
2021/03/13 18:31:32;;;;;;;2.72;1.05;;;;;;;4.82;79.61;98570.47;10160334;28;20050;-67
2021/03/13 18:36:28;;;;;;;3.60;1.05;;;;;;;4.79;79.83;98576.53;10157174;28;20507;-68
2021/03/13 18:41:24;;;;;;;4.53;1.25;;;;;;;4.64;81.24;98552.78;10175510;28;20050;-68
2021/03/13 18:46:23;;;;;;;4.30;0.85;;;;;;;4.62;80.77;98550.41;10167061;28;20048;-69
2021/03/13 18:51:19;;;;;;;4.70;1.13;;;;;;;4.55;82.34;98563.69;10162211;28;20054;-69
2021/03/13 18:56:15;;;;;;;3.70;1.13;;;;;;;4.47;81.97;98550.22;10182895;28;20076;-68
2021/03/13 19:01:11;;;;;;;3.40;0.88;;;;;;;4.45;82.35;98560.56;10168256;28;20052;-69
2021/03/13 19:06:27;;;;;;;4.55;1.13;;;;;;;4.36;83.03;98533.56;10160882;28;20052;-70
2021/03/13 19:11:23;;;;;;;6.20;1.10;;;;;;;4.31;83.36;98550.78;10159081;28;20100;-68
2021/03/13 19:16:19;;;;;;;3.58;1.15;;;;;;;4.30;83.00;98603.34;10160237;28;20052;-69
2021/03/13 19:21:16;;;;;;;5.78;1.50;;;;;;;4.29;84.26;98579.31;10165552;28;20049;-68
2021/03/13 19:26:12;;;;;;;3.47;1.40;;;;;;;4.22;83.76;98569.00;10168543;28;20096;-68
2021/03/13 19:31:08;;;;;;;6.07;1.90;;;;;;;4.24;84.86;98561.34;10163832;28;20080;-68
2021/03/13 19:36:05;;;;;;;7.15;1.70;;;;;;;4.24;84.30;98555.16;10150384;28;20056;-68
2021/03/13 19:41:01;;;;;;;3.70;1.92;;;;;;;4.22;85.20;98552.75;10155628;28;20050;-69
2021/03/13 19:45:58;;;;;;;4.10;1.48;;;;;;;4.10;84.46;98563.50;10151507;28;20397;-69
2021/03/13 19:50:54;;;;;;;7.63;1.40;;;;;;;4.13;85.14;98565.56;10156133;28;20057;-70
2021/03/13 19:55:50;;;;;;;4.20;1.38;;;;;;;4.16;84.93;98554.88;10149962;28;20057;-70
2021/03/13 20:00:46;;;;;;;3.40;1.40;;;;;;;4.16;85.80;98575.75;10170803;28;20057;-70
2021/03/13 20:05:42;;;;;;;6.05;1.20;;;;;;;4.12;86.70;98569.38;10161407;28;20049;-69
2021/03/13 20:10:38;;;;;;;7.40;2.03;;;;;;;4.11;86.45;98573.22;10158541;28;20066;-69
2021/03/13 20:15:34;;;;;;;6.85;1.63;;;;;;;4.07;87.13;98594.72;10160435;28;20060;-70
2021/03/13 20:20:30;;;;;;;6.40;1.55;;;;;;;4.02;87.87;98594.13;10151945;28;20058;-70
2021/03/13 20:25:26;;;;;;;18.88;1.90;;;;;;;4.00;88.08;98607.94;10173920;28;20058;-70
2021/03/13 20:30:22;;;;;;;6.35;1.10;;;;;;;3.99;88.79;98593.63;10169596;28;20050;-70
2021/03/13 20:35:20;;;;;;;5.03;1.40;;;;;;;3.92;88.55;98628.50;10155876;28;20043;-70
2021/03/13 20:40:20;;;;;;;8.05;1.48;;;;;;;3.92;89.12;98598.78;10178310;28;20054;-70
2021/03/13 20:45:16;;;;;;;9.13;1.40;;;;;;;3.94;89.53;98623.53;10157010;28;20049;-70
2021/03/13 20:50:13;;;;;;;5.00;1.40;;;;;;;3.86;89.23;98627.09;10144978;28;20500;-70
2021/03/13 20:55:10;;;;;;;7.85;1.17;;;;;;;3.86;89.06;98631.72;10155178;28;20121;-70
2021/03/13 21:00:07;;;;;;;3.60;1.00;;;;;;;3.86;90.09;98637.91;10161622;28;20046;-71
2021/03/13 21:05:05;;;;;;;2.30;0.73;;;;;;;3.76;90.00;98665.28;10165044;28;20049;-70
2021/03/13 21:10:04;;;;;;;1.98;0.57;;;;;;;3.75;89.00;98663.69;10170223;28;20064;-69
2021/03/13 21:15:00;;;;;;;5.35;1.05;;;;;;;3.72;89.97;98669.75;10153515;28;20726;-70
2021/03/13 21:19:58;;;;;;;11.68;1.23;;;;;;;3.70;89.67;98682.78;10170898;28;20051;-69
2021/03/13 21:24:54;;;;;;;3.60;0.52;;;;;;;3.68;89.98;98679.63;10176777;28;20042;-71
2021/03/13 21:29:51;;;;;;;2.70;0.60;;;;;;;3.62;90.49;98697.09;10168428;28;20050;-70
2021/03/13 21:34:49;;;;;;;2.50;0.30;;;;;;;3.42;89.34;98731.78;10158423;28;20573;-70
2021/03/13 21:39:47;;;;;;;2.13;0.43;;;;;;;3.30;89.74;98724.31;10159353;28;20056;-69
2021/03/13 21:44:43;;;;;;;1.25;0.25;;;;;;;3.25;89.34;98742.59;10164689;28;20122;-70
2021/03/13 21:49:39;;;;;;;1.55;0.38;;;;;;;3.27;89.61;98734.97;10222288;28;20049;-70
2021/03/13 21:54:35;;;;;;;3.53;0.52;;;;;;;3.20;89.91;98740.03;10179369;28;20053;-69
2021/03/13 21:59:31;;;;;;;3.00;0.70;;;;;;;3.14;89.93;98775.31;10174799;28;20052;-71
2021/03/13 22:04:27;;;;;;;4.03;0.73;;;;;;;3.15;89.61;98787.69;10165182;28;20105;-69
2021/03/13 22:09:23;;;;;;;4.45;0.77;;;;;;;3.05;89.92;98749.41;10171246;28;20432;-70
2021/03/13 22:14:19;;;;;;;4.50;1.17;;;;;;;2.99;89.50;98802.75;10166717;28;20061;-70
2021/03/13 22:19:15;;;;;;;6.47;1.63;;;;;;;2.85;89.04;98805.56;10171336;28;20072;-70
2021/03/13 22:24:11;;;;;;;5.05;1.52;;;;;;;2.88;89.98;98815.75;10165257;28;20056;-71
2021/03/13 22:29:07;;;;;;;4.97;1.38;;;;;;;2.85;89.25;98812.88;10169654;28;20053;-71
2021/03/13 22:34:03;;;;;;;2.45;1.20;;;;;;;2.88;89.68;98823.06;10182624;28;20407;-71
2021/03/13 22:38:59;;;;;;;7.72;1.52;;;;;;;2.88;89.87;98831.16;10163604;28;20114;-71
2021/03/13 22:43:55;;;;;;;2.22;0.98;;;;;;;2.82;90.34;98838.59;10163570;28;20143;-71
2021/03/13 22:48:51;;;;;;;3.50;1.38;;;;;;;2.81;90.30;98841.59;10173862;28;20045;-72
2021/03/13 22:53:47;;;;;;;3.63;1.00;;;;;;;2.71;89.95;98865.06;10171533;28;20061;-72
2021/03/13 22:58:43;;;;;;;5.10;1.35;;;;;;;2.72;90.48;98850.47;10173595;28;20566;-72
2021/03/13 23:03:39;;;;;;;3.88;1.20;;;;;;;2.69;90.84;98851.09;10166740;28;20045;-71
2021/03/13 23:08:36;;;;;;;5.50;2.00;;;;;;;2.75;90.65;98859.84;10161520;28;20065;-72
2021/03/13 23:13:32;;;;;;;5.13;1.60;;;;;;;2.86;90.53;98863.06;10159600;28;20050;-72
2021/03/13 23:18:29;;;;;;;6.93;1.90;;;;;;;2.87;91.78;98861.94;10168069;28;20054;-71
2021/03/13 23:23:25;;;;;;;6.15;1.85;;;;;;;2.99;91.75;98856.75;10160561;28;20057;-68